createdAt,value
2023-03-16T00:00:43.911Z,100938.44
2023-03-16T00:05:49.491Z,100942.75
2023-03-16T00:10:52.127Z,100936.59
2023-03-16T00:15:54.954Z,100946.06
2023-03-16T00:20:57.991Z,100932.34
2023-03-16T00:26:00.721Z,100931.78
2023-03-16T00:31:02.944Z,100945.06
2023-03-16T00:36:05.025Z,100947.88
2023-03-16T00:41:07.435Z,100944.81
2023-03-16T00:46:09.856Z,100952.59
2023-03-16T00:51:12.543Z,100956.28
2023-03-16T00:56:14.464Z,100954.28
2023-03-16T01:01:17.360Z,100943.03
2023-03-16T01:06:18.862Z,100937.34
2023-03-16T01:11:21.468Z,100943.88
2023-03-16T01:16:22.891Z,100952.78
2023-03-16T01:21:24.290Z,100936.66
2023-03-16T01:26:25.634Z,100920.13
2023-03-16T01:31:27.072Z,100922.19
2023-03-16T01:36:28.468Z,100916.19
2023-03-16T01:41:29.871Z,100904.06
2023-03-16T01:46:31.574Z,100886.78
2023-03-16T01:51:32.997Z,100884.97
2023-03-16T01:56:43.062Z,100889.13
2023-03-16T02:01:46.258Z,100887.44
2023-03-16T02:06:47.668Z,100883.09
2023-03-16T02:11:49.335Z,100872.03
2023-03-16T02:16:52.653Z,100868.47
2023-03-16T02:22:00.090Z,100862.09
2023-03-16T02:27:03.093Z,100860.28
2023-03-16T02:32:05.215Z,100837.66
2023-03-16T02:37:07.156Z,100830.34
2023-03-16T02:42:12.185Z,100823.09
2023-03-16T02:47:17.954Z,100820.59
2023-03-16T02:52:19.401Z,100834.38
2023-03-16T02:57:20.790Z,100835.31
2023-03-16T03:02:22.172Z,100823.94
2023-03-16T03:07:23.582Z,100821.31
2023-03-16T03:12:25.469Z,100821.66
2023-03-16T03:17:26.839Z,100827.59
2023-03-16T03:22:28.493Z,100821.03
2023-03-16T03:27:29.970Z,100819.50
2023-03-16T03:32:31.418Z,100806.06
2023-03-16T03:37:32.833Z,100815.66
2023-03-16T03:42:34.271Z,100816.16
2023-03-16T03:47:35.757Z,100813.56
2023-03-16T03:52:37.132Z,100813.47
2023-03-16T03:57:38.659Z,100806.50
2023-03-16T04:02:40.544Z,100807.47
2023-03-16T04:07:42.034Z,100806.19
2023-03-16T04:12:43.362Z,100797.88
2023-03-16T04:17:44.730Z,100791.03
2023-03-16T04:22:47.298Z,100791.31
2023-03-16T04:27:48.663Z,100796.72
2023-03-16T04:32:50.107Z,100802.44
2023-03-16T04:37:51.513Z,100802.78
2023-03-16T04:42:52.899Z,100809.66
2023-03-16T04:47:54.262Z,100801.25
2023-03-16T04:52:55.632Z,100791.81
2023-03-16T04:57:57.242Z,100789.97
2023-03-16T05:02:58.639Z,100772.47
2023-03-16T05:08:00.011Z,100766.44
2023-03-16T05:13:01.436Z,100761.56
2023-03-16T05:18:03.098Z,100751.63
2023-03-16T05:23:04.640Z,100739.94
2023-03-16T05:28:06.067Z,100737.03
2023-03-16T05:33:07.658Z,100739.13
2023-03-16T05:38:09.034Z,100748.03
2023-03-16T05:43:10.436Z,100751.59
2023-03-16T05:48:11.954Z,100741.91
2023-03-16T05:53:13.437Z,100751.22
2023-03-16T05:58:14.796Z,100753.41
2023-03-16T06:03:16.588Z,100751.72
2023-03-16T06:08:17.989Z,100750.53
2023-03-16T06:13:19.363Z,100755.78
2023-03-16T06:18:20.746Z,100755.47
2023-03-16T06:23:22.172Z,100757.22
2023-03-16T06:28:23.799Z,100762.75
2023-03-16T06:33:25.240Z,100755.28
2023-03-16T06:38:26.702Z,100759.47
2023-03-16T06:43:28.103Z,100755.03
2023-03-16T06:48:29.793Z,100756.84
2023-03-16T06:53:31.191Z,100753.22
2023-03-16T06:58:32.584Z,100754.53
2023-03-16T07:03:34.093Z,100756.44
2023-03-16T07:08:35.949Z,100760.59
2023-03-16T07:13:37.497Z,100754.66
2023-03-16T07:18:39.096Z,100751.63
2023-03-16T07:23:40.636Z,100742.19
2023-03-16T07:28:42.016Z,100755.66
2023-03-16T07:33:43.361Z,100760.16
2023-03-16T07:38:44.734Z,100757.03
2023-03-16T07:43:46.173Z,100763.94
2023-03-16T07:48:47.566Z,100760.91
2023-03-16T07:53:49.076Z,100757.16
2023-03-16T07:58:50.456Z,100755.41
2023-03-16T08:03:52.003Z,100751.88
2023-03-16T08:08:54.606Z,100740.66
2023-03-16T08:13:55.989Z,100744.25
2023-03-16T08:18:57.369Z,100748.19
2023-03-16T08:23:58.745Z,100756.22
2023-03-16T08:29:00.223Z,100752.75
2023-03-16T08:34:01.808Z,100748.25
2023-03-16T08:39:07.441Z,100741.16
2023-03-16T08:44:09.787Z,100742.09
2023-03-16T08:49:11.287Z,100732.25
2023-03-16T08:54:12.813Z,100720.97
2023-03-16T08:59:26.972Z,100715.66
2023-03-16T09:04:30.774Z,100725.69
2023-03-16T09:09:32.598Z,100735.19
2023-03-16T09:14:34.429Z,100731.03
2023-03-16T09:19:53.157Z,100734.34
2023-03-16T09:24:55.270Z,100717.13
2023-03-16T09:29:56.653Z,100726.69
2023-03-16T09:34:58.012Z,100715.53
2023-03-16T09:40:10.124Z,100713.16
2023-03-16T09:45:26.361Z,100703.06
2023-03-16T09:50:35.222Z,100701.47
2023-03-16T09:56:05.735Z,100714.50
2023-03-16T10:01:25.961Z,100700.75
2023-03-16T10:06:30.579Z,100703.66
2023-03-16T10:16:59.017Z,100714.81
2023-03-16T10:22:02.814Z,100710.41
2023-03-16T10:27:06.451Z,100701.38
2023-03-16T10:32:15.205Z,100694.69
2023-03-16T10:37:16.624Z,100698.47
2023-03-16T10:42:20.168Z,100689.22
2023-03-16T10:47:28.232Z,100678.78
2023-03-16T10:52:33.335Z,100680.88
2023-03-16T10:57:35.869Z,100683.41
2023-03-16T11:02:37.234Z,100680.56
2023-03-16T11:07:38.636Z,100668.84
2023-03-16T11:12:40.171Z,100675.56
2023-03-16T11:17:41.573Z,100659.50
2023-03-16T11:22:46.325Z,100646.03
2023-03-16T11:28:08.627Z,100640.31
2023-03-16T11:33:11.637Z,100628.22
2023-03-16T11:38:28.471Z,100628.06
2023-03-16T11:43:35.819Z,100625.63
2023-03-16T11:48:41.439Z,100637.47
2023-03-16T11:53:46.104Z,100622.75
2023-03-16T11:58:59.691Z,100618.03
2023-03-16T12:04:03.969Z,100601.16
2023-03-16T12:09:08.423Z,100587.72
2023-03-16T12:14:23.821Z,100586.94
2023-03-16T12:19:28.275Z,100573.88
2023-03-16T12:24:35.289Z,100563.66
2023-03-16T12:29:44.624Z,100558.06
2023-03-16T12:34:53.676Z,100558.94
2023-03-16T12:40:01.058Z,100552.06
2023-03-16T12:45:25.793Z,100543.41
2023-03-16T12:50:29.080Z,100543.09
2023-03-16T12:55:33.211Z,100530.00
2023-03-16T13:00:39.417Z,100519.75
2023-03-16T13:05:50.552Z,100507.53
2023-03-16T13:11:07.958Z,100495.44
2023-03-16T13:16:10.141Z,100493.69
2023-03-16T13:21:19.234Z,100501.69
2023-03-16T13:26:35.843Z,100489.81
2023-03-16T13:31:40.397Z,100488.66
2023-03-16T13:36:43.984Z,100483.97
2023-03-16T13:41:57.355Z,100480.03
2023-03-16T13:47:07.781Z,100473.78
2023-03-16T13:52:20.297Z,100467.06
2023-03-16T13:57:24.063Z,100458.44
2023-03-16T14:02:25.418Z,100454.72
2023-03-16T14:07:26.822Z,100433.09
2023-03-16T14:12:28.268Z,100434.06
2023-03-16T14:17:29.744Z,100418.59
2023-03-16T14:22:33.431Z,100414.31
2023-03-16T14:27:41.193Z,100403.38
2023-03-16T14:32:42.588Z,100391.28
2023-03-16T14:37:44.112Z,100386.63
2023-03-16T14:42:45.566Z,100387.34
2023-03-16T14:47:48.083Z,100380.25
2023-03-16T14:52:49.975Z,100384.84
2023-03-16T14:57:51.548Z,100385.94
2023-03-16T15:02:55.907Z,100384.84
2023-03-16T15:07:57.241Z,100373.06
2023-03-16T15:12:58.608Z,100365.88
2023-03-16T15:18:00.003Z,100363.00
2023-03-16T15:23:01.675Z,100360.38
2023-03-16T15:28:16.882Z,100366.03
2023-03-16T15:33:18.543Z,100338.53
2023-03-16T15:38:22.627Z,100334.69
2023-03-16T15:43:27.081Z,100332.25
2023-03-16T15:48:30.923Z,100330.94
2023-03-16T15:53:34.669Z,100333.19
2023-03-16T15:58:37.846Z,100325.53
2023-03-16T16:03:39.203Z,100331.16
2023-03-16T16:08:40.671Z,100313.81
2023-03-16T16:13:44.952Z,100317.63
2023-03-16T16:18:47.316Z,100303.69
2023-03-16T16:23:48.768Z,100299.06
2023-03-16T16:28:53.392Z,100306.25
2023-03-16T16:33:54.793Z,100295.78
2023-03-16T16:38:56.247Z,100295.38
2023-03-16T16:43:58.033Z,100297.66
2023-03-16T16:49:01.138Z,100290.72
2023-03-16T16:54:02.681Z,100286.66
2023-03-16T16:59:23.861Z,100284.25
2023-03-16T17:04:27.065Z,100276.84
2023-03-16T17:09:28.563Z,100278.28
2023-03-16T17:14:29.988Z,100280.41
2023-03-16T17:19:31.387Z,100278.16
2023-03-16T17:24:32.778Z,100274.69
2023-03-16T17:29:34.198Z,100279.47
2023-03-16T17:34:35.556Z,100270.59
2023-03-16T17:39:36.950Z,100269.44
2023-03-16T17:44:42.570Z,100261.03
2023-03-16T17:49:44.089Z,100257.69
2023-03-16T17:54:46.420Z,100258.66
2023-03-16T17:59:47.961Z,100260.72
2023-03-16T18:04:49.336Z,100251.69
2023-03-16T18:09:50.713Z,100256.66
2023-03-16T18:14:52.171Z,100254.56
2023-03-16T18:19:53.798Z,100261.75
2023-03-16T18:24:55.245Z,100265.16
2023-03-16T18:29:56.615Z,100260.00
2023-03-16T18:34:58.050Z,100271.09
2023-03-16T18:39:59.441Z,100268.72
2023-03-16T18:45:01.145Z,100259.84
2023-03-16T18:50:02.625Z,100262.03
2023-03-16T18:55:04.235Z,100274.50
2023-03-16T19:00:05.994Z,100267.31
2023-03-16T19:05:17.687Z,100264.06
2023-03-16T19:10:22.140Z,100270.75
2023-03-16T19:15:28.488Z,100258.69
2023-03-16T19:20:32.202Z,100275.44
2023-03-16T19:25:37.671Z,100263.47
2023-03-16T19:30:39.198Z,100253.41
2023-03-16T19:35:51.115Z,100269.81
2023-03-16T19:40:55.877Z,100255.22
2023-03-16T19:45:57.410Z,100250.78
2023-03-16T19:50:58.873Z,100255.50
2023-03-16T19:56:00.356Z,100259.97
2023-03-16T20:01:01.800Z,100265.38
2023-03-16T20:06:03.253Z,100250.47
2023-03-16T20:11:06.625Z,100246.34
2023-03-16T20:16:10.263Z,100253.94
2023-03-16T20:21:14.763Z,100240.38
2023-03-16T20:26:24.571Z,100236.75
2023-03-16T20:31:27.065Z,100231.81
2023-03-16T20:36:28.929Z,100218.63
2023-03-16T20:41:30.901Z,100220.22
2023-03-16T20:46:33.010Z,100219.06
2023-03-16T20:51:34.373Z,100213.72
2023-03-16T20:56:35.728Z,100220.75
2023-03-16T21:01:37.243Z,100212.38
2023-03-16T21:06:38.641Z,100207.41
2023-03-16T21:11:40.789Z,100204.78
2023-03-16T21:16:42.523Z,100209.19
2023-03-16T21:21:44.156Z,100200.38
2023-03-16T21:26:45.781Z,100193.63
2023-03-16T21:31:47.229Z,100196.38
2023-03-16T21:36:48.603Z,100197.53
2023-03-16T21:41:49.994Z,100186.41
2023-03-16T21:46:51.586Z,100180.00
2023-03-16T21:51:53.037Z,100181.81
2023-03-16T21:56:54.402Z,100183.56
2023-03-16T22:02:01.860Z,100169.25
2023-03-16T22:07:05.825Z,100164.22
2023-03-16T22:12:10.121Z,100160.91
2023-03-16T22:17:22.165Z,100169.66
2023-03-16T22:22:23.655Z,100141.06
2023-03-16T22:27:25.020Z,100144.94
2023-03-16T22:32:26.425Z,100148.31
2023-03-16T22:37:28.329Z,100137.84
2023-03-16T22:42:37.084Z,100142.13
2023-03-16T22:47:38.530Z,100146.41
2023-03-16T22:52:39.986Z,100146.72
2023-03-16T22:57:41.573Z,100123.47
2023-03-16T23:02:42.941Z,100128.16
2023-03-16T23:07:44.345Z,100126.78
2023-03-16T23:12:45.949Z,100126.41
2023-03-16T23:17:47.385Z,100113.69
2023-03-16T23:22:48.890Z,100118.31
2023-03-16T23:27:51.693Z,100104.31
2023-03-16T23:32:54.326Z,100098.25
2023-03-16T23:37:55.884Z,100101.19
2023-03-16T23:42:59.854Z,100100.88
2023-03-16T23:48:03.571Z,100107.22
2023-03-16T23:53:10.301Z,100098.53
2023-03-16T23:58:12.110Z,100100.72
